sensor_id;sensor_type;location;lat;lon;timestamp;pressure;altitude;pressure_sealevel;temperature;humidity
40460;BME280;26164;51.138;16.952;2024-02-04T00:01:14;74484.38;;;-146.39;34.67
40460;BME280;26164;51.138;16.952;2024-02-04T00:03:59;74286.44;;;-146.39;33.64
40460;BME280;26164;51.138;16.952;2024-02-04T00:09:46;74286.44;;;-146.39;33.17
40460;BME280;26164;51.138;16.952;2024-02-04T00:18:38;74690.47;;;-146.39;35.12
40460;BME280;26164;51.138;16.952;2024-02-04T00:21:09;74633.31;;;-146.39;35.19
40460;BME280;26164;51.138;16.952;2024-02-04T00:23:36;74982.28;;;-146.39;39.79
40460;BME280;26164;51.138;16.952;2024-02-04T00:26:09;74870.03;;;-146.39;39.71
40460;BME280;26164;51.138;16.952;2024-02-04T00:28:39;74947.56;;;-146.39;40.00
40460;BME280;26164;51.138;16.952;2024-02-04T00:31:30;75061.84;;;-146.39;41.65
40460;BME280;26164;51.138;16.952;2024-02-04T00:34:00;74967.97;;;-146.39;40.19
40460;BME280;26164;51.138;16.952;2024-02-04T00:36:26;75008.78;;;-146.39;40.56
40460;BME280;26164;51.138;16.952;2024-02-04T00:39:00;74943.50;;;-146.39;38.92
40460;BME280;26164;51.138;16.952;2024-02-04T00:41:29;74957.78;;;-146.39;40.24
40460;BME280;26164;51.138;16.952;2024-02-04T00:44:01;74976.16;;;-146.39;40.38
40460;BME280;26164;51.138;16.952;2024-02-04T00:46:27;74845.53;;;-146.39;38.36
40460;BME280;26164;51.138;16.952;2024-02-04T00:49:00;74841.47;;;-146.39;38.34
40460;BME280;26164;51.138;16.952;2024-02-04T00:51:30;75041.44;;;-146.39;40.50
40460;BME280;26164;51.138;16.952;2024-02-04T00:54:05;75006.75;;;-146.39;39.56
40460;BME280;26164;51.138;16.952;2024-02-04T00:56:31;74970.03;;;-146.39;39.73
40460;BME280;26164;51.138;16.952;2024-02-04T00:59:00;75192.47;;;-146.39;43.37
40460;BME280;26164;51.138;16.952;2024-02-04T01:01:27;75151.66;;;-146.39;43.65
40460;BME280;26164;51.138;16.952;2024-02-04T01:03:55;75376.13;;;-146.39;47.79
40460;BME280;26164;51.138;16.952;2024-02-04T01:06:21;75265.94;;;-146.39;47.57
40460;BME280;26164;51.138;16.952;2024-02-04T01:08:49;75172.06;;;-146.39;44.80
40460;BME280;26164;51.138;16.952;2024-02-04T01:11:16;75225.13;;;-146.39;45.90
40460;BME280;26164;51.138;16.952;2024-02-04T01:13:42;75204.72;;;-146.39;44.66
40460;BME280;26164;51.138;16.952;2024-02-04T01:16:08;75100.63;;;-146.39;42.92
40460;BME280;26164;51.138;16.952;2024-02-04T01:18:35;75074.09;;;-146.39;43.30
40460;BME280;26164;51.138;16.952;2024-02-04T01:21:01;75143.50;;;-146.39;42.33
40460;BME280;26164;51.138;16.952;2024-02-04T01:23:27;75167.97;;;-146.39;43.75
40460;BME280;26164;51.138;16.952;2024-02-04T01:25:53;75141.44;;;-146.39;45.24
40460;BME280;26164;51.138;16.952;2024-02-04T01:28:20;75233.28;;;-146.39;44.58
40460;BME280;26164;51.138;16.952;2024-02-04T01:30:47;75245.53;;;-146.39;45.47
40460;BME280;26164;51.138;16.952;2024-02-04T01:33:13;75282.25;;;-146.39;45.90
40460;BME280;26164;51.138;16.952;2024-02-04T01:35:39;75339.41;;;-146.39;48.90
40460;BME280;26164;51.138;16.952;2024-02-04T01:38:05;75284.31;;;-146.39;47.94
40460;BME280;26164;51.138;16.952;2024-02-04T01:40:31;75278.19;;;-146.39;47.58
40460;BME280;26164;51.138;16.952;2024-02-04T01:42:57;75106.75;;;-146.39;44.51
40460;BME280;26164;51.138;16.952;2024-02-04T01:45:24;75074.09;;;-146.39;43.35
40460;BME280;26164;51.138;16.952;2024-02-04T01:47:53;75176.13;;;-146.39;44.66
40460;BME280;26164;51.138;16.952;2024-02-04T01:50:20;75102.66;;;-146.39;43.29
40460;BME280;26164;51.138;16.952;2024-02-04T01:52:48;75212.88;;;-146.39;44.43
40460;BME280;26164;51.138;16.952;2024-02-04T01:55:14;75147.56;;;-146.39;45.10
40460;BME280;26164;51.138;16.952;2024-02-04T01:57:42;74996.56;;;-146.39;43.27
40460;BME280;26164;51.138;16.952;2024-02-04T02:00:12;75049.63;;;-146.39;43.79
40460;BME280;26164;51.138;16.952;2024-02-04T02:02:41;75086.34;;;-146.39;44.20
40460;BME280;26164;51.138;16.952;2024-02-04T02:05:08;75123.06;;;-146.39;44.78
40460;BME280;26164;51.138;16.952;2024-02-04T02:07:49;75108.78;;;-146.39;44.89
40460;BME280;26164;51.138;16.952;2024-02-04T02:10:18;75045.53;;;-146.39;44.06
40460;BME280;26164;51.138;16.952;2024-02-04T02:12:49;75094.50;;;-146.39;44.68
40460;BME280;26164;51.138;16.952;2024-02-04T02:15:26;75104.72;;;-146.39;44.67
40460;BME280;26164;51.138;16.952;2024-02-04T02:18:03;75102.66;;;-146.39;44.25
40460;BME280;26164;51.138;16.952;2024-02-04T02:23:30;75098.59;;;-146.39;43.99
40460;BME280;26164;51.138;16.952;2024-02-04T02:25:57;75090.44;;;-146.39;44.73
40460;BME280;26164;51.138;16.952;2024-02-04T02:28:23;75061.84;;;-146.39;44.20
40460;BME280;26164;51.138;16.952;2024-02-04T02:30:49;75208.78;;;-146.39;46.68
40460;BME280;26164;51.138;16.952;2024-02-04T02:33:16;75151.66;;;-146.39;44.89
40460;BME280;26164;51.138;16.952;2024-02-04T02:35:45;75049.63;;;-146.39;44.83
40460;BME280;26164;51.138;16.952;2024-02-04T02:38:35;75239.41;;;-146.39;48.00
40460;BME280;26164;51.138;16.952;2024-02-04T02:41:04;75286.34;;;-146.39;48.49
40460;BME280;26164;51.138;16.952;2024-02-04T02:43:33;75229.19;;;-146.39;48.59
40460;BME280;26164;51.138;16.952;2024-02-04T02:46:00;75321.03;;;-146.39;49.01
40460;BME280;26164;51.138;16.952;2024-02-04T02:48:27;75241.44;;;-146.39;48.57
40460;BME280;26164;51.138;16.952;2024-02-04T02:50:53;75233.28;;;-146.39;46.00
40460;BME280;26164;51.138;16.952;2024-02-04T02:53:19;75253.69;;;-146.39;45.10
40460;BME280;26164;51.138;16.952;2024-02-04T02:55:46;75270.03;;;-146.39;45.57
40460;BME280;26164;51.138;16.952;2024-02-04T02:58:13;75382.25;;;-146.39;46.56
40460;BME280;26164;51.138;16.952;2024-02-04T03:00:39;75278.19;;;-146.39;44.68
40460;BME280;26164;51.138;16.952;2024-02-04T03:03:05;75347.56;;;-146.39;45.25
40460;BME280;26164;51.138;16.952;2024-02-04T03:05:33;75225.13;;;-146.39;42.75
40460;BME280;26164;51.138;16.952;2024-02-04T03:08:00;75365.94;;;-146.39;44.81
40460;BME280;26164;51.138;16.952;2024-02-04T03:10:26;75359.81;;;-146.39;45.08
40460;BME280;26164;51.138;16.952;2024-02-04T03:12:52;75339.41;;;-146.39;43.53
40460;BME280;26164;51.138;16.952;2024-02-04T03:15:19;75357.78;;;-146.39;44.86
40460;BME280;26164;51.138;16.952;2024-02-04T03:17:45;75365.94;;;-146.39;44.23
40460;BME280;26164;51.138;16.952;2024-02-04T03:20:12;75367.97;;;-146.39;44.74
40460;BME280;26164;51.138;16.952;2024-02-04T03:22:37;75367.97;;;-146.39;44.18
40460;BME280;26164;51.138;16.952;2024-02-04T03:25:04;75349.59;;;-146.39;44.02
40460;BME280;26164;51.138;16.952;2024-02-04T03:27:30;75327.16;;;-146.39;43.73
40460;BME280;26164;51.138;16.952;2024-02-04T03:29:56;75347.56;;;-146.39;44.20
40460;BME280;26164;51.138;16.952;2024-02-04T03:32:22;75367.97;;;-146.39;43.16
40460;BME280;26164;51.138;16.952;2024-02-04T03:34:48;75333.28;;;-146.39;43.51
40460;BME280;26164;51.138;16.952;2024-02-04T03:37:15;75286.34;;;-146.39;42.97
40460;BME280;26164;51.138;16.952;2024-02-04T03:39:42;75355.72;;;-146.39;43.86
40460;BME280;26164;51.138;16.952;2024-02-04T03:42:07;75474.09;;;-146.39;44.48
40460;BME280;26164;51.138;16.952;2024-02-04T03:44:33;75380.22;;;-146.39;43.65
40460;BME280;26164;51.138;16.952;2024-02-04T03:46:59;75410.84;;;-146.39;43.52
40460;BME280;26164;51.138;16.952;2024-02-04T03:49:28;75435.31;;;-146.39;43.96
40460;BME280;26164;51.138;16.952;2024-02-04T03:51:54;75478.19;;;-146.39;43.67
40460;BME280;26164;51.138;16.952;2024-02-04T03:54:20;75449.63;;;-146.39;42.83
40460;BME280;26164;51.138;16.952;2024-02-04T03:56:46;75457.78;;;-146.39;41.72
40460;BME280;26164;51.138;16.952;2024-02-04T03:59:12;75525.13;;;-146.39;40.98
40460;BME280;26164;51.138;16.952;2024-02-04T04:01:38;75502.69;;;-146.39;41.22
40460;BME280;26164;51.138;16.952;2024-02-04T04:04:04;75519.00;;;-146.39;41.29
40460;BME280;26164;51.138;16.952;2024-02-04T04:06:30;75568.00;;;-146.39;40.81
40460;BME280;26164;51.138;16.952;2024-02-04T04:08:56;75547.59;;;-146.39;41.59
40460;BME280;26164;51.138;16.952;2024-02-04T04:11:24;75625.13;;;-146.39;41.96
40460;BME280;26164;51.138;16.952;2024-02-04T04:13:52;75555.75;;;-146.39;40.84
40460;BME280;26164;51.138;16.952;2024-02-04T04:16:22;75388.38;;;-146.39;40.23
40460;BME280;26164;51.138;16.952;2024-02-04T04:18:55;75621.06;;;-146.39;41.56
40460;BME280;26164;51.138;16.952;2024-02-04T04:21:25;75478.19;;;-146.39;39.90
40460;BME280;26164;51.138;16.952;2024-02-04T04:24:06;75604.72;;;-146.39;41.63
40460;BME280;26164;51.138;16.952;2024-02-04T04:26:47;75596.56;;;-146.39;41.46
40460;BME280;26164;51.138;16.952;2024-02-04T04:29:16;75537.38;;;-146.39;41.36
40460;BME280;26164;51.138;16.952;2024-02-04T04:31:42;75592.47;;;-146.39;41.45
40460;BME280;26164;51.138;16.952;2024-02-04T04:34:10;75470.03;;;-146.39;39.76
40460;BME280;26164;51.138;16.952;2024-02-04T04:36:37;75421.03;;;-146.39;40.05
40460;BME280;26164;51.138;16.952;2024-02-04T04:39:05;75412.88;;;-146.39;39.90
40460;BME280;26164;51.138;16.952;2024-02-04T04:41:31;75559.81;;;-146.39;41.37
40460;BME280;26164;51.138;16.952;2024-02-04T04:44:03;75453.69;;;-146.39;40.68
40460;BME280;26164;51.138;16.952;2024-02-04T04:46:30;75490.44;;;-146.39;40.06
40460;BME280;26164;51.138;16.952;2024-02-04T04:48:58;75523.09;;;-146.39;41.01
40460;BME280;26164;51.138;16.952;2024-02-04T04:51:26;75584.31;;;-146.39;42.94
40460;BME280;26164;51.138;16.952;2024-02-04T04:54:08;75523.09;;;-146.39;41.33
40460;BME280;26164;51.138;16.952;2024-02-04T04:56:45;75559.81;;;-146.39;42.78
40460;BME280;26164;51.138;16.952;2024-02-04T04:59:16;75723.09;;;-146.39;44.43
40460;BME280;26164;51.138;16.952;2024-02-04T05:01:50;75580.25;;;-146.39;42.94
40460;BME280;26164;51.138;16.952;2024-02-04T05:04:16;75568.00;;;-146.39;42.76
40460;BME280;26164;51.138;16.952;2024-02-04T05:06:49;75551.66;;;-146.39;42.76
40460;BME280;26164;51.138;16.952;2024-02-04T05:09:15;75541.47;;;-146.39;42.40
40460;BME280;26164;51.138;16.952;2024-02-04T05:11:43;75461.84;;;-146.39;41.67
40460;BME280;26164;51.138;16.952;2024-02-04T05:14:10;75441.44;;;-146.39;41.25
40460;BME280;26164;51.138;16.952;2024-02-04T05:16:51;75421.03;;;-146.39;40.58
40460;BME280;26164;51.138;16.952;2024-02-04T05:19:18;75461.84;;;-146.39;41.04
40460;BME280;26164;51.138;16.952;2024-02-04T05:21:44;75478.19;;;-146.39;41.21
40460;BME280;26164;51.138;16.952;2024-02-04T05:24:13;75625.13;;;-146.39;42.32
40460;BME280;26164;51.138;16.952;2024-02-04T05:26:39;75539.41;;;-146.39;41.35
40460;BME280;26164;51.138;16.952;2024-02-04T05:29:06;75453.69;;;-146.39;40.63
40460;BME280;26164;51.138;16.952;2024-02-04T05:31:40;75453.69;;;-146.39;40.75
40460;BME280;26164;51.138;16.952;2024-02-04T05:34:06;75384.31;;;-146.39;39.22
40460;BME280;26164;51.138;16.952;2024-02-04T05:36:35;75678.19;;;-146.39;41.78
40460;BME280;26164;51.138;16.952;2024-02-04T05:39:14;75484.31;;;-146.39;39.84
40460;BME280;26164;51.138;16.952;2024-02-04T05:41:40;75531.25;;;-146.39;40.83
40460;BME280;26164;51.138;16.952;2024-02-04T05:44:06;75535.34;;;-146.39;40.36
40460;BME280;26164;51.138;16.952;2024-02-04T05:46:35;75555.75;;;-146.39;40.96
40460;BME280;26164;51.138;16.952;2024-02-04T05:49:01;75527.16;;;-146.39;40.11
40460;BME280;26164;51.138;16.952;2024-02-04T05:51:27;75543.50;;;-146.39;40.15
40460;BME280;26164;51.138;16.952;2024-02-04T05:53:54;75559.81;;;-146.39;40.52
40460;BME280;26164;51.138;16.952;2024-02-04T05:56:21;75445.53;;;-146.39;39.51
40460;BME280;26164;51.138;16.952;2024-02-04T05:58:47;75592.47;;;-146.39;40.75
40460;BME280;26164;51.138;16.952;2024-02-04T06:01:14;75635.34;;;-146.39;40.98
40460;BME280;26164;51.138;16.952;2024-02-04T06:03:42;75674.13;;;-146.39;42.12
40460;BME280;26164;51.138;16.952;2024-02-04T06:06:14;75600.66;;;-146.39;40.96
40460;BME280;26164;51.138;16.952;2024-02-04T06:08:40;75433.28;;;-146.39;38.92
40460;BME280;26164;51.138;16.952;2024-02-04T06:11:09;75406.75;;;-146.39;38.97
40460;BME280;26164;51.138;16.952;2024-02-04T06:13:35;75408.78;;;-146.39;38.46
40460;BME280;26164;51.138;16.952;2024-02-04T06:16:03;75519.00;;;-146.39;38.81
40460;BME280;26164;51.138;16.952;2024-02-04T06:18:47;75339.41;;;-146.39;37.03
40460;BME280;26164;51.138;16.952;2024-02-04T06:21:13;75331.25;;;-146.39;37.03
40460;BME280;26164;51.138;16.952;2024-02-04T06:23:39;75376.13;;;-146.39;37.40
40460;BME280;26164;51.138;16.952;2024-02-04T06:26:06;75365.94;;;-146.39;36.97
40460;BME280;26164;51.138;16.952;2024-02-04T06:28:32;75433.28;;;-146.39;37.64
40460;BME280;26164;51.138;16.952;2024-02-04T06:31:12;75455.75;;;-146.39;38.08
40460;BME280;26164;51.138;16.952;2024-02-04T06:33:53;75398.59;;;-146.39;37.80
40460;BME280;26164;51.138;16.952;2024-02-04T06:36:19;75484.31;;;-146.39;38.22
40460;BME280;26164;51.138;16.952;2024-02-04T06:38:45;75437.38;;;-146.39;38.00
40460;BME280;26164;51.138;16.952;2024-02-04T06:41:11;75498.59;;;-146.39;38.46
40460;BME280;26164;51.138;16.952;2024-02-04T06:43:37;75543.50;;;-146.39;39.43
40460;BME280;26164;51.138;16.952;2024-02-04T06:46:05;75545.53;;;-146.39;38.99
40460;BME280;26164;51.138;16.952;2024-02-04T06:48:30;75623.09;;;-146.39;39.24
40460;BME280;26164;51.138;16.952;2024-02-04T06:50:57;75580.25;;;-146.39;39.50
40460;BME280;26164;51.138;16.952;2024-02-04T06:53:23;75584.31;;;-146.39;39.57
40460;BME280;26164;51.138;16.952;2024-02-04T07:38:28;75470.03;;;-146.39;39.24
40460;BME280;26164;51.138;16.952;2024-02-04T07:41:26;75465.94;;;-146.39;39.53
40460;BME280;26164;51.138;16.952;2024-02-04T07:44:57;75400.63;;;-146.39;38.58
40460;BME280;26164;51.138;16.952;2024-02-04T08:13:50;75519.00;;;-146.39;39.56
40460;BME280;26164;51.138;16.952;2024-02-04T08:56:46;75155.72;;;-146.39;33.70
40460;BME280;26164;51.138;16.952;2024-02-04T09:00:05;75225.13;;;-146.39;34.38
40460;BME280;26164;51.138;16.952;2024-02-04T09:11:27;75257.78;;;-146.39;35.03
40460;BME280;26164;51.138;16.952;2024-02-04T09:14:08;75319.00;;;-146.39;35.54
40460;BME280;26164;51.138;16.952;2024-02-04T09:16:52;75261.84;;;-146.39;35.16
40460;BME280;26164;51.138;16.952;2024-02-04T09:19:33;75245.53;;;-146.39;35.35
40460;BME280;26164;51.138;16.952;2024-02-04T09:22:39;75282.25;;;-146.39;36.01
40460;BME280;26164;51.138;16.952;2024-02-04T09:25:20;75261.84;;;-146.39;35.51
40460;BME280;26164;51.138;16.952;2024-02-04T09:28:02;75319.00;;;-146.39;35.77
40460;BME280;26164;51.138;16.952;2024-02-04T09:30:44;75363.91;;;-146.39;36.33
40460;BME280;26164;51.138;16.952;2024-02-04T09:33:27;75343.50;;;-146.39;36.19
40460;BME280;26164;51.138;16.952;2024-02-04T09:36:09;75363.91;;;-146.39;36.43
40460;BME280;26164;51.138;16.952;2024-02-04T09:38:51;75298.59;;;-146.39;35.84
40460;BME280;26164;51.138;16.952;2024-02-04T09:41:32;75355.72;;;-146.39;36.41
40460;BME280;26164;51.138;16.952;2024-02-04T09:44:24;75402.69;;;-146.39;37.15
40460;BME280;26164;51.138;16.952;2024-02-04T09:47:07;75233.28;;;-146.39;35.56
40460;BME280;26164;51.138;16.952;2024-02-04T09:49:51;75380.22;;;-146.39;36.71
40460;BME280;26164;51.138;16.952;2024-02-04T09:52:40;75282.25;;;-146.39;36.40
40460;BME280;26164;51.138;16.952;2024-02-04T09:55:27;75200.63;;;-146.39;35.94
40460;BME280;26164;51.138;16.952;2024-02-04T09:58:09;75286.34;;;-146.39;36.10
40460;BME280;26164;51.138;16.952;2024-02-04T10:00:57;75165.94;;;-146.39;35.80
40460;BME280;26164;51.138;16.952;2024-02-04T10:04:07;75192.47;;;-146.39;36.16
40460;BME280;26164;51.138;16.952;2024-02-04T10:07:34;75147.56;;;-146.39;35.17
40460;BME280;26164;51.138;16.952;2024-02-04T10:10:26;75106.75;;;-146.39;35.83
40460;BME280;26164;51.138;16.952;2024-02-04T10:13:28;75155.72;;;-146.39;35.99
40460;BME280;26164;51.138;16.952;2024-02-04T10:16:12;75078.19;;;-146.39;35.81
40460;BME280;26164;51.138;16.952;2024-02-04T10:18:55;75139.41;;;-146.39;36.09
40460;BME280;26164;51.138;16.952;2024-02-04T10:21:44;75253.69;;;-146.39;37.19
40460;BME280;26164;51.138;16.952;2024-02-04T10:24:26;75143.50;;;-146.39;36.21
40460;BME280;26164;51.138;16.952;2024-02-04T10:27:10;75106.75;;;-146.39;36.61
40460;BME280;26164;51.138;16.952;2024-02-04T10:30:03;75172.06;;;-146.39;37.29
40460;BME280;26164;51.138;16.952;2024-02-04T10:33:32;75233.28;;;-146.39;37.73
40460;BME280;26164;51.138;16.952;2024-02-04T10:36:15;75082.25;;;-146.39;36.51
40460;BME280;26164;51.138;16.952;2024-02-04T10:39:01;75119.00;;;-146.39;37.22
40460;BME280;26164;51.138;16.952;2024-02-04T10:41:52;75078.19;;;-146.39;36.95
40460;BME280;26164;51.138;16.952;2024-02-04T10:44:48;75004.72;;;-146.39;37.07
40460;BME280;26164;51.138;16.952;2024-02-04T10:47:56;75053.69;;;-146.39;37.54
40460;BME280;26164;51.138;16.952;2024-02-04T10:50:46;74943.50;;;-146.39;37.21
40460;BME280;26164;51.138;16.952;2024-02-04T10:54:07;74955.75;;;-146.39;36.65
40460;BME280;26164;51.138;16.952;2024-02-04T11:03:19;74970.03;;;-146.39;38.19
40460;BME280;26164;51.138;16.952;2024-02-04T11:06:24;75014.91;;;-146.39;38.66
40460;BME280;26164;51.138;16.952;2024-02-04T11:09:27;75041.44;;;-146.39;39.01
40460;BME280;26164;51.138;16.952;2024-02-04T11:12:38;74972.06;;;-146.39;38.27
40460;BME280;26164;51.138;16.952;2024-02-04T11:15:43;74963.91;;;-146.39;38.83
40460;BME280;26164;51.138;16.952;2024-02-04T11:43:47;75067.97;;;-146.39;39.95
40460;BME280;26164;51.138;16.952;2024-02-04T11:51:07;75000.63;;;-146.39;40.69
40460;BME280;26164;51.138;16.952;2024-02-04T12:07:18;75076.13;;;-146.39;41.57
40460;BME280;26164;51.138;16.952;2024-02-04T12:09:50;75025.13;;;-146.39;41.31
40460;BME280;26164;51.138;16.952;2024-02-04T12:12:23;75131.25;;;-146.39;41.79
40460;BME280;26164;51.138;16.952;2024-02-04T12:15:09;74847.59;;;-146.39;38.98
40460;BME280;26164;51.138;16.952;2024-02-04T12:18:13;74982.28;;;-146.39;40.29
40460;BME280;26164;51.138;16.952;2024-02-04T12:20:53;75025.13;;;-146.39;40.46
40460;BME280;26164;51.138;16.952;2024-02-04T12:23:27;74959.81;;;-146.39;40.17
40460;BME280;26164;51.138;16.952;2024-02-04T12:25:56;75006.75;;;-146.39;40.13
40460;BME280;26164;51.138;16.952;2024-02-04T12:28:33;74963.91;;;-146.39;40.68
40460;BME280;26164;51.138;16.952;2024-02-04T12:31:18;75004.72;;;-146.39;41.12
40460;BME280;26164;51.138;16.952;2024-02-04T12:33:54;74947.56;;;-146.39;40.41
40460;BME280;26164;51.138;16.952;2024-02-04T12:36:21;75135.31;;;-146.39;41.79
40460;BME280;26164;51.138;16.952;2024-02-04T12:39:04;74933.28;;;-146.39;40.67
40460;BME280;26164;51.138;16.952;2024-02-04T12:41:57;74870.03;;;-146.39;39.74
40460;BME280;26164;51.138;16.952;2024-02-04T12:44:23;74976.16;;;-146.39;40.90
40460;BME280;26164;51.138;16.952;2024-02-04T12:46:54;74894.53;;;-146.39;40.61
40460;BME280;26164;51.138;16.952;2024-02-04T12:49:29;74886.34;;;-146.39;40.38
40460;BME280;26164;51.138;16.952;2024-02-04T12:52:20;74943.50;;;-146.39;40.98
40460;BME280;26164;51.138;16.952;2024-02-04T12:55:04;74931.25;;;-146.39;41.05
40460;BME280;26164;51.138;16.952;2024-02-04T12:57:45;74841.47;;;-146.39;40.11
40460;BME280;26164;51.138;16.952;2024-02-04T13:00:36;74841.47;;;-146.39;39.95
40460;BME280;26164;51.138;16.952;2024-02-04T13:03:19;74678.22;;;-146.39;38.70
40460;BME280;26164;51.138;16.952;2024-02-04T13:06:02;74849.63;;;-146.39;39.31
40460;BME280;26164;51.138;16.952;2024-02-04T13:08:44;74837.38;;;-146.39;39.36
40460;BME280;26164;51.138;16.952;2024-02-04T13:11:52;74837.38;;;-146.39;39.65
40460;BME280;26164;51.138;16.952;2024-02-04T13:17:22;74847.59;;;-146.39;39.28
40460;BME280;26164;51.138;16.952;2024-02-04T13:20:04;74886.34;;;-146.39;39.67
40460;BME280;26164;51.138;16.952;2024-02-04T13:22:45;74812.91;;;-146.39;39.17
40460;BME280;26164;51.138;16.952;2024-02-04T13:25:16;74788.41;;;-146.39;39.15
40460;BME280;26164;51.138;16.952;2024-02-04T13:27:43;74821.06;;;-146.39;38.80
40460;BME280;26164;51.138;16.952;2024-02-04T13:30:27;74782.28;;;-146.39;38.48
40460;BME280;26164;51.138;16.952;2024-02-04T13:33:12;74784.31;;;-146.39;38.46
40460;BME280;26164;51.138;16.952;2024-02-04T13:35:55;74759.84;;;-146.39;38.68
40460;BME280;26164;51.138;16.952;2024-02-04T13:38:37;74912.88;;;-146.39;39.85
40460;BME280;26164;51.138;16.952;2024-02-04T13:41:19;74790.44;;;-146.39;38.78
40460;BME280;26164;51.138;16.952;2024-02-04T13:44:04;74837.38;;;-146.39;39.80
40460;BME280;26164;51.138;16.952;2024-02-04T13:46:52;74833.31;;;-146.39;39.87
40460;BME280;26164;51.138;16.952;2024-02-04T13:49:41;74847.59;;;-146.39;39.78
40460;BME280;26164;51.138;16.952;2024-02-04T13:52:26;74890.44;;;-146.39;40.68
40460;BME280;26164;51.138;16.952;2024-02-04T13:58:09;74923.09;;;-146.39;41.00
40460;BME280;26164;51.138;16.952;2024-02-04T14:01:18;74886.34;;;-146.39;40.66
40460;BME280;26164;51.138;16.952;2024-02-04T14:04:03;74833.31;;;-146.39;40.50
40460;BME280;26164;51.138;16.952;2024-02-04T14:06:45;74821.06;;;-146.39;40.37
40460;BME280;26164;51.138;16.952;2024-02-04T14:09:30;75004.72;;;-146.39;42.47
40460;BME280;26164;51.138;16.952;2024-02-04T14:12:14;75027.16;;;-146.39;42.34
40460;BME280;26164;51.138;16.952;2024-02-04T14:14:49;75047.56;;;-146.39;44.97
40460;BME280;26164;51.138;16.952;2024-02-04T14:17:23;74992.47;;;-146.39;45.20
40460;BME280;26164;51.138;16.952;2024-02-04T15:14:19;74937.38;;;-146.39;39.87
40460;BME280;26164;51.138;16.952;2024-02-04T15:37:49;75004.72;;;-146.39;38.60
40460;BME280;26164;51.138;16.952;2024-02-04T15:53:00;74982.28;;;-146.39;37.91
40460;BME280;26164;51.138;16.952;2024-02-04T16:14:23;74974.09;;;-146.39;37.42
40460;BME280;26164;51.138;16.952;2024-02-04T16:17:51;75008.78;;;-146.39;38.40
40460;BME280;26164;51.138;16.952;2024-02-04T16:21:33;74902.69;;;-146.39;37.35
40460;BME280;26164;51.138;16.952;2024-02-04T16:31:25;75021.03;;;-146.39;37.58
40460;BME280;26164;51.138;16.952;2024-02-04T16:34:24;74998.59;;;-146.39;37.60
40460;BME280;26164;51.138;16.952;2024-02-04T16:37:35;74970.03;;;-146.39;37.29
40460;BME280;26164;51.138;16.952;2024-02-04T16:40:55;75012.88;;;-146.39;37.35
40460;BME280;26164;51.138;16.952;2024-02-04T16:50:16;75065.94;;;-146.39;37.80
40460;BME280;26164;51.138;16.952;2024-02-04T16:53:10;75016.97;;;-146.39;37.34
40460;BME280;26164;51.138;16.952;2024-02-04T16:55:55;75076.13;;;-146.39;37.02
40460;BME280;26164;51.138;16.952;2024-02-04T16:58:38;75037.38;;;-146.39;37.46
40460;BME280;26164;51.138;16.952;2024-02-04T17:01:08;75051.66;;;-146.39;37.37
40460;BME280;26164;51.138;16.952;2024-02-04T17:03:38;75070.03;;;-146.39;37.26
40460;BME280;26164;51.138;16.952;2024-02-04T17:06:21;74986.34;;;-146.39;36.68
40460;BME280;26164;51.138;16.952;2024-02-04T17:08:53;75047.56;;;-146.39;37.03
40460;BME280;26164;51.138;16.952;2024-02-04T17:11:49;74959.81;;;-146.39;36.55
40460;BME280;26164;51.138;16.952;2024-02-04T17:14:36;75086.34;;;-146.39;37.07
40460;BME280;26164;51.138;16.952;2024-02-04T17:17:23;75047.56;;;-146.39;37.30
40460;BME280;26164;51.138;16.952;2024-02-04T17:20:20;74972.06;;;-146.39;36.84
40460;BME280;26164;51.138;16.952;2024-02-04T17:23:10;75000.63;;;-146.39;37.01
40460;BME280;26164;51.138;16.952;2024-02-04T17:58:35;75094.50;;;-146.39;36.66
40460;BME280;26164;51.138;16.952;2024-02-04T18:01:26;74955.75;;;-146.39;35.55
40460;BME280;26164;51.138;16.952;2024-02-04T18:04:00;75110.84;;;-146.39;36.65
40460;BME280;26164;51.138;16.952;2024-02-04T18:06:39;75016.97;;;-146.39;35.89
40460;BME280;26164;51.138;16.952;2024-02-04T18:09:05;75159.81;;;-146.39;36.91
40460;BME280;26164;51.138;16.952;2024-02-04T18:11:40;75106.75;;;-146.39;36.69
40460;BME280;26164;51.138;16.952;2024-02-04T18:14:12;75176.13;;;-146.39;37.53
40460;BME280;26164;51.138;16.952;2024-02-04T18:16:42;75161.84;;;-146.39;37.17
40460;BME280;26164;51.138;16.952;2024-02-04T18:19:10;75123.06;;;-146.39;36.73
40460;BME280;26164;51.138;16.952;2024-02-04T18:21:51;75161.84;;;-146.39;37.49
40460;BME280;26164;51.138;16.952;2024-02-04T18:24:21;74982.28;;;-146.39;36.19
40460;BME280;26164;51.138;16.952;2024-02-04T18:26:48;75114.91;;;-146.39;36.58
40460;BME280;26164;51.138;16.952;2024-02-04T18:29:32;75125.13;;;-146.39;37.36
40460;BME280;26164;51.138;16.952;2024-02-04T18:32:14;75143.50;;;-146.39;36.79
40460;BME280;26164;51.138;16.952;2024-02-04T18:34:55;75041.44;;;-146.39;36.05
40460;BME280;26164;51.138;16.952;2024-02-04T18:37:21;75200.63;;;-146.39;36.94
40460;BME280;26164;51.138;16.952;2024-02-04T18:39:57;75155.72;;;-146.39;36.76
40460;BME280;26164;51.138;16.952;2024-02-04T18:42:28;75061.84;;;-146.39;36.25
40460;BME280;26164;51.138;16.952;2024-02-04T18:44:57;75082.25;;;-146.39;36.04
40460;BME280;26164;51.138;16.952;2024-02-04T18:47:25;75012.88;;;-146.39;35.23
40460;BME280;26164;51.138;16.952;2024-02-04T18:49:57;75031.25;;;-146.39;35.37
40460;BME280;26164;51.138;16.952;2024-02-04T18:52:41;75057.78;;;-146.39;35.30
40460;BME280;26164;51.138;16.952;2024-02-04T18:55:29;75033.28;;;-146.39;35.47
40460;BME280;26164;51.138;16.952;2024-02-04T18:58:20;74931.25;;;-146.39;34.96